createdAt,value
2023-06-14T00:02:46.460Z,98740.70
2023-06-14T00:07:49.630Z,98744.35
2023-06-14T00:12:51.741Z,98743.95
2023-06-14T00:17:53.640Z,98743.44
2023-06-14T00:22:56.408Z,98744.27
2023-06-14T00:27:59.182Z,98745.42
2023-06-14T00:33:01.241Z,98741.38
2023-06-14T00:38:03.486Z,98739.80
2023-06-14T00:43:05.567Z,98736.27
2023-06-14T00:48:08.810Z,98734.85
2023-06-14T00:53:11.194Z,98732.77
2023-06-14T00:58:13.203Z,98733.11
2023-06-14T01:03:23.299Z,98735.05
2023-06-14T01:08:59.754Z,98728.80
2023-06-14T01:14:04.214Z,98727.01
2023-06-14T01:19:07.681Z,98720.12
2023-06-14T01:24:10.559Z,98719.68
2023-06-14T01:29:17.716Z,98717.17
2023-06-14T01:34:21.550Z,98715.02
2023-06-14T01:39:27.420Z,98722.69
2023-06-14T01:44:32.324Z,98727.63
2023-06-14T01:49:36.909Z,98727.44
2023-06-14T01:54:43.114Z,98727.73
2023-06-14T01:59:56.765Z,98724.30
2023-06-14T02:04:58.776Z,98723.41
2023-06-14T02:10:00.736Z,98719.76
2023-06-14T02:15:02.495Z,98713.35
2023-06-14T02:20:06.114Z,98714.44
2023-06-14T02:25:08.969Z,98716.02
2023-06-14T02:30:11.654Z,98720.52
2023-06-14T02:35:14.376Z,98718.25
2023-06-14T02:40:16.401Z,98722.23
2023-06-14T02:45:18.820Z,98722.29
2023-06-14T02:50:22.666Z,98723.83
2023-06-14T02:55:24.800Z,98724.77
2023-06-14T03:00:27.483Z,98727.30
2023-06-14T03:05:29.369Z,98722.42
2023-06-14T03:10:31.685Z,98718.56
2023-06-14T03:15:34.638Z,98718.05
2023-06-14T03:20:37.300Z,98712.80
2023-06-14T03:25:39.801Z,98714.11
2023-06-14T03:30:42.152Z,98720.05
2023-06-14T03:35:44.897Z,98715.01
2023-06-14T03:40:47.841Z,98719.77
2023-06-14T03:45:49.864Z,98722.52
2023-06-14T03:50:52.572Z,98729.27
2023-06-14T03:56:09.579Z,98720.27
2023-06-14T04:07:14.395Z,98719.73
2023-06-14T04:12:16.280Z,98725.02
2023-06-14T04:17:18.099Z,98719.73
2023-06-14T04:22:21.301Z,98711.66
2023-06-14T04:27:26.309Z,98720.31
2023-06-14T04:32:30.615Z,98720.70
2023-06-14T04:37:33.059Z,98712.31
2023-06-14T04:42:38.020Z,98710.10
2023-06-14T04:47:43.202Z,98717.36
2023-06-14T04:52:45.304Z,98717.35
2023-06-14T04:57:47.337Z,98717.86
2023-06-14T05:02:50.430Z,98721.49
2023-06-14T05:07:52.370Z,98726.83
2023-06-14T05:12:55.452Z,98726.96
2023-06-14T05:17:57.552Z,98726.91
2023-06-14T05:22:59.430Z,98728.20
2023-06-14T05:28:01.255Z,98734.93
2023-06-14T05:33:03.174Z,98737.00
2023-06-14T05:38:05.020Z,98740.78
2023-06-14T05:43:06.814Z,98752.65
2023-06-14T05:48:08.584Z,98753.81
2023-06-14T05:53:10.850Z,98745.24
2023-06-14T05:58:14.741Z,98748.90
2023-06-14T06:03:16.621Z,98749.65
2023-06-14T06:08:18.446Z,98751.95
2023-06-14T06:13:20.307Z,98752.73
2023-06-14T06:18:22.341Z,98751.48
2023-06-14T06:23:24.615Z,98754.31
2023-06-14T06:28:26.386Z,98759.26
2023-06-14T06:33:28.167Z,98763.13
2023-06-14T06:38:30.966Z,98770.34
2023-06-14T06:43:32.709Z,98773.67
2023-06-14T06:48:34.990Z,98775.73
2023-06-14T06:53:41.991Z,98777.19
2023-06-14T06:58:46.286Z,98778.75
2023-06-14T07:03:48.776Z,98782.98
2023-06-14T07:08:50.558Z,98787.41
2023-06-14T07:13:52.297Z,98786.86
2023-06-14T07:18:54.215Z,98783.73
2023-06-14T07:23:56.353Z,98784.02
2023-06-14T07:28:58.219Z,98787.81
2023-06-14T07:34:00.223Z,98792.83
2023-06-14T07:39:04.501Z,98794.77
2023-06-14T07:44:06.468Z,98795.98
2023-06-14T07:49:08.622Z,98795.89
2023-06-14T07:54:10.519Z,98799.02
2023-06-14T07:59:12.292Z,98798.48
2023-06-14T08:04:15.409Z,98797.70
2023-06-14T08:09:17.521Z,98799.39
2023-06-14T08:14:19.224Z,98797.30
2023-06-14T08:19:21.048Z,98794.33
2023-06-14T08:24:25.835Z,98797.42
2023-06-14T08:29:30.430Z,98806.41
2023-06-14T08:34:32.173Z,98808.95
2023-06-14T08:39:33.867Z,98808.88
2023-06-14T08:44:35.937Z,98812.54
2023-06-14T08:49:39.246Z,98811.16
2023-06-14T08:54:44.796Z,98813.08
2023-06-14T08:59:53.594Z,98817.50
2023-06-14T09:04:55.359Z,98827.98
2023-06-14T09:10:12.532Z,98831.93
2023-06-14T09:15:15.393Z,98834.69
2023-06-14T09:20:20.787Z,98832.40
2023-06-14T09:25:38.020Z,98833.10
2023-06-14T09:30:41.043Z,98834.11
2023-06-14T09:35:42.799Z,98832.88
2023-06-14T09:40:44.677Z,98830.75
2023-06-14T09:45:49.972Z,98825.16
2023-06-14T09:50:52.039Z,98826.82
2023-06-14T09:55:57.024Z,98827.02
2023-06-14T10:01:00.195Z,98827.59
2023-06-14T10:06:06.972Z,98830.97
2023-06-14T10:11:08.987Z,98834.91
2023-06-14T10:16:18.980Z,98835.29
2023-06-14T10:21:33.443Z,98835.46
2023-06-14T10:26:35.207Z,98828.95
2023-06-14T10:31:46.148Z,98823.77
2023-06-14T10:37:04.147Z,98820.79
2023-06-14T10:42:07.274Z,98822.14
2023-06-14T10:47:25.844Z,98821.88
2023-06-14T10:52:30.125Z,98822.02
2023-06-14T10:57:48.589Z,98814.77
2023-06-14T11:03:17.746Z,98810.95
2023-06-14T11:08:54.941Z,98810.77
2023-06-14T11:13:56.754Z,98808.79
2023-06-14T11:18:58.592Z,98808.52
2023-06-14T11:24:01.065Z,98804.60
2023-06-14T11:29:03.422Z,98802.58
2023-06-14T11:34:07.211Z,98800.50
2023-06-14T11:39:09.802Z,98800.89
2023-06-14T11:44:12.899Z,98794.88
2023-06-14T11:49:14.677Z,98788.26
2023-06-14T11:54:16.623Z,98782.44
2023-06-14T11:59:18.590Z,98778.73
2023-06-14T12:04:30.250Z,98775.73
2023-06-14T12:09:32.509Z,98767.09
2023-06-14T12:14:34.232Z,98762.04
2023-06-14T12:19:46.647Z,98761.09
2023-06-14T12:24:48.322Z,98756.36
2023-06-14T12:30:00.589Z,98749.94
2023-06-14T12:35:02.787Z,98749.39
2023-06-14T12:40:06.929Z,98747.25
2023-06-14T12:45:09.517Z,98745.91
2023-06-14T12:50:11.680Z,98737.86
2023-06-14T12:55:13.398Z,98734.52
2023-06-14T13:00:16.533Z,98738.13
2023-06-14T13:05:19.529Z,98739.73
2023-06-14T13:10:21.259Z,98736.20
2023-06-14T13:15:23.022Z,98740.52
2023-06-14T13:20:25.111Z,98745.94
2023-06-14T13:25:26.995Z,98749.80
2023-06-14T13:30:29.330Z,98754.74
2023-06-14T13:35:31.462Z,98749.23
2023-06-14T13:40:33.200Z,98748.43
2023-06-14T13:45:34.964Z,98746.73
2023-06-14T13:50:36.702Z,98739.20
2023-06-14T13:55:38.433Z,98735.45
2023-06-14T14:00:41.607Z,98737.59
2023-06-14T14:05:43.730Z,98739.38
2023-06-14T14:10:45.552Z,98736.36
2023-06-14T14:15:47.571Z,98740.09
2023-06-14T14:20:50.162Z,98739.83
2023-06-14T14:25:51.883Z,98746.21
2023-06-14T14:30:54.853Z,98746.80
2023-06-14T14:35:56.772Z,98747.91
2023-06-14T14:40:58.651Z,98746.41
2023-06-14T14:46:00.346Z,98744.49
2023-06-14T14:51:02.215Z,98741.70
2023-06-14T14:56:06.341Z,98732.36
2023-06-14T15:01:09.059Z,98728.04
2023-06-14T15:06:10.816Z,98724.06
2023-06-14T15:11:12.600Z,98722.58
2023-06-14T15:16:14.300Z,98726.78
2023-06-14T15:21:16.280Z,98718.70
2023-06-14T15:26:18.013Z,98716.09
2023-06-14T15:31:19.774Z,98711.19
2023-06-14T15:36:21.650Z,98706.23
2023-06-14T15:41:23.387Z,98706.82
2023-06-14T15:46:25.146Z,98704.23
2023-06-14T15:51:26.968Z,98703.89
2023-06-14T15:56:28.662Z,98707.18
2023-06-14T16:01:30.395Z,98708.33
2023-06-14T16:06:32.325Z,98711.02
2023-06-14T16:11:34.050Z,98709.37
2023-06-14T16:16:35.790Z,98709.36
2023-06-14T16:21:38.110Z,98708.24
2023-06-14T16:26:39.940Z,98709.98
2023-06-14T16:31:41.722Z,98708.63
2023-06-14T16:36:44.604Z,98708.27
2023-06-14T16:41:48.923Z,98716.41
2023-06-14T16:46:50.677Z,98725.09
2023-06-14T16:51:52.428Z,98738.66
2023-06-14T16:56:54.139Z,98732.34
2023-06-14T17:02:05.733Z,98740.23
2023-06-14T17:07:08.293Z,98744.34
2023-06-14T17:12:11.378Z,98751.73
2023-06-14T17:17:13.254Z,98759.14
2023-06-14T17:22:15.084Z,98767.48
2023-06-14T17:27:17.065Z,98781.42
2023-06-14T17:32:19.080Z,98784.05
2023-06-14T17:37:21.415Z,98788.84
2023-06-14T17:42:26.391Z,98795.29
2023-06-14T17:47:36.240Z,98802.80
2023-06-14T17:52:38.536Z,98806.10
2023-06-14T17:57:42.558Z,98810.02
2023-06-14T18:02:46.998Z,98810.52
2023-06-14T18:07:49.136Z,98814.58
2023-06-14T18:12:50.973Z,98819.54
2023-06-14T18:17:55.204Z,98826.08
2023-06-14T18:22:57.095Z,98829.94
2023-06-14T18:27:58.856Z,98830.30
2023-06-14T18:33:00.823Z,98824.23
2023-06-14T18:38:02.648Z,98823.72
2023-06-14T18:43:05.026Z,98825.52
2023-06-14T18:48:07.070Z,98830.58
2023-06-14T18:53:08.860Z,98829.37
2023-06-14T18:58:11.476Z,98834.70
2023-06-14T19:03:14.150Z,98844.98
2023-06-14T19:08:16.008Z,98846.79
2023-06-14T19:13:18.864Z,98855.62
2023-06-14T19:18:24.982Z,98859.63
2023-06-14T19:23:27.160Z,98865.35
2023-06-14T19:28:28.892Z,98867.09
2023-06-14T19:33:30.689Z,98870.38
2023-06-14T19:38:33.666Z,98870.38
2023-06-14T19:43:35.506Z,98870.72
2023-06-14T19:48:37.449Z,98867.42
2023-06-14T19:53:39.309Z,98871.37
2023-06-14T19:58:42.850Z,98876.13
2023-06-14T20:03:45.063Z,98873.85
2023-06-14T20:08:46.928Z,98874.67
2023-06-14T20:13:48.587Z,98877.56
2023-06-14T20:18:50.357Z,98874.41
2023-06-14T20:23:52.273Z,98875.92
2023-06-14T20:28:54.233Z,98877.06
2023-06-14T20:33:55.955Z,98878.02
2023-06-14T20:38:58.804Z,98885.70
2023-06-14T20:44:02.465Z,98881.48
2023-06-14T20:49:04.417Z,98880.73
2023-06-14T20:54:06.187Z,98879.95
2023-06-14T20:59:08.369Z,98885.01
2023-06-14T21:04:10.279Z,98883.85
2023-06-14T21:09:12.049Z,98884.41
2023-06-14T21:14:18.863Z,98886.49
2023-06-14T21:19:22.419Z,98894.64
2023-06-14T21:24:24.200Z,98896.91
2023-06-14T21:29:26.010Z,98894.48
2023-06-14T21:34:29.394Z,98892.15
2023-06-14T21:39:50.040Z,98897.12
2023-06-14T21:44:52.642Z,98898.48
2023-06-14T21:49:54.296Z,98901.30
2023-06-14T21:54:57.827Z,98898.50
2023-06-14T22:00:00.481Z,98896.73
2023-06-14T22:05:02.218Z,98893.21
2023-06-14T22:10:04.351Z,98891.83
2023-06-14T22:15:09.634Z,98892.02
2023-06-14T22:20:14.294Z,98895.95
2023-06-14T22:25:16.955Z,98889.55
2023-06-14T22:30:19.884Z,98889.89
2023-06-14T22:35:21.921Z,98885.86
2023-06-14T22:40:23.856Z,98881.23
2023-06-14T22:45:29.377Z,98878.20
2023-06-14T22:50:31.744Z,98880.40
2023-06-14T22:55:33.425Z,98880.82
2023-06-14T23:00:35.153Z,98880.23
2023-06-14T23:05:39.801Z,98875.45
2023-06-14T23:10:48.199Z,98877.98
2023-06-14T23:15:55.416Z,98874.85
2023-06-14T23:20:57.254Z,98871.61
2023-06-14T23:26:00.604Z,98872.16
2023-06-14T23:31:03.459Z,98870.17
2023-06-14T23:36:09.558Z,98866.46
2023-06-14T23:41:11.696Z,98863.95
2023-06-14T23:46:16.966Z,98865.09
2023-06-14T23:51:39.113Z,98862.16
2023-06-14T23:56:42.611Z,98862.48
